Time;durP1;ratioP1;P1;durP2;ratioP2;P2;SDS_P1;SDS_P2;PMS_P1;PMS_P2;Temp;Humidity;BMP_temperature;BMP_pressure;BME280_temperature;BME280_humidity;BME280_pressure;Samples;Min_cycle;Max_cycle;Signal;HPM_P1;HPM_P2
2022/11/08 00:01:35;;;;;;;15.67;3.90;;;12.40;99.90;;;;;;5014144;28;20343;-77
2022/11/08 00:04:06;;;;;;;18.33;3.90;;;12.40;99.90;;;;;;5014168;28;20384;-77
2022/11/08 00:14:48;;;;;;;17.88;4.07;;;12.40;99.90;;;;;;5013924;28;20312;-78
2022/11/08 00:17:15;;;;;;;13.13;3.17;;;12.40;99.90;;;;;;5013964;28;20046;-78
2022/11/08 00:19:42;;;;;;;23.30;3.80;;;12.40;99.90;;;;;;5014047;28;20296;-78
2022/11/08 00:22:08;;;;;;;17.67;3.70;;;12.40;99.90;;;;;;5014585;28;20285;-77
2022/11/08 00:24:34;;;;;;;21.37;3.40;;;12.40;99.90;;;;;;5013966;28;20368;-78
2022/11/08 00:27:04;;;;;;;16.43;3.90;;;12.40;99.90;;;;;;5014729;28;20285;-78
2022/11/08 00:29:30;;;;;;;18.43;3.23;;;12.40;99.90;;;;;;5014875;28;20133;-78
2022/11/08 00:31:56;;;;;;;16.90;3.80;;;12.40;99.90;;;;;;5013353;28;20308;-78
2022/11/08 00:34:22;;;;;;;17.07;3.60;;;12.40;99.90;;;;;;5014392;28;20349;-78
2022/11/08 00:36:47;;;;;;;15.23;3.40;;;12.40;99.90;;;;;;5013803;28;20064;-78
2022/11/08 00:39:13;;;;;;;15.57;3.60;;;12.40;99.90;;;;;;5014003;28;20478;-78
2022/11/08 00:41:39;;;;;;;14.47;3.63;;;12.40;99.90;;;;;;5013628;28;20046;-78
2022/11/08 00:44:04;;;;;;;15.77;3.60;;;12.40;99.90;;;;;;5013446;28;20125;-77
2022/11/08 00:46:30;;;;;;;15.90;3.77;;;12.40;99.90;;;;;;5013565;28;20046;-78
2022/11/08 00:48:56;;;;;;;15.57;3.70;;;12.40;99.90;;;;;;4997289;28;20133;-77
2022/11/08 00:51:21;;;;;;;12.27;3.23;;;12.40;99.90;;;;;;4996911;28;20060;-77
2022/11/08 00:53:47;;;;;;;20.83;3.87;;;12.40;99.90;;;;;;4981039;28;20046;-78
2022/11/08 00:56:13;;;;;;;14.60;3.90;;;12.40;99.90;;;;;;5013732;28;20050;-77
2022/11/08 00:58:42;;;;;;;16.53;3.83;;;12.30;99.90;;;;;;5014201;28;20072;-77
2022/11/08 01:01:17;;;;;;;17.40;3.53;;;12.30;99.90;;;;;;5013198;28;20100;-77
2022/11/08 01:03:44;;;;;;;15.85;3.60;;;12.30;99.90;;;;;;5014376;28;20273;-77
2022/11/08 01:06:12;;;;;;;11.30;3.40;;;12.30;99.90;;;;;;5013090;28;20046;-78
2022/11/08 01:08:37;;;;;;;14.67;3.50;;;12.30;99.90;;;;;;5013448;28;20288;-78
2022/11/08 01:11:06;;;;;;;14.73;2.90;;;12.30;99.90;;;;;;4996691;28;20293;-78
2022/11/08 01:13:33;;;;;;;15.67;3.33;;;12.30;99.90;;;;;;5014068;28;20050;-78
2022/11/08 01:16:15;;;;;;;14.03;3.40;;;12.30;99.90;;;;;;5013754;28;20364;-78
2022/11/08 01:18:41;;;;;;;13.53;3.60;;;12.30;99.90;;;;;;5014021;28;20272;-78
2022/11/08 01:21:07;;;;;;;15.17;3.20;;;12.20;99.90;;;;;;5014043;28;20779;-78
2022/11/08 01:23:34;;;;;;;12.63;3.83;;;12.20;99.90;;;;;;4996659;28;20377;-78
2022/11/08 01:26:05;;;;;;;14.77;3.60;;;12.20;99.90;;;;;;5013063;28;20289;-78
2022/11/08 01:28:32;;;;;;;17.93;3.90;;;12.20;99.90;;;;;;5014283;28;20277;-80
2022/11/08 01:31:06;;;;;;;14.67;3.57;;;12.10;99.90;;;;;;4996607;28;20288;-78
2022/11/08 01:33:33;;;;;;;10.27;3.47;;;12.10;99.90;;;;;;5012558;28;20347;-79
2022/11/08 01:35:59;;;;;;;15.63;3.00;;;12.10;99.90;;;;;;4996583;28;20053;-78
2022/11/08 01:38:25;;;;;;;13.63;3.53;;;12.10;99.90;;;;;;4996610;28;20843;-77
2022/11/08 01:40:50;;;;;;;15.07;3.03;;;12.10;99.90;;;;;;5018458;28;20445;-77
2022/11/08 01:43:28;;;;;;;15.80;3.00;;;12.10;99.90;;;;;;5019679;28;20368;-77
2022/11/08 01:46:32;;;;;;;15.33;3.77;;;12.10;99.90;;;;;;5019556;28;20141;-77
2022/11/08 01:49:22;;;;;;;11.83;3.40;;;12.10;99.90;;;;;;5003765;28;20293;-78
2022/11/08 01:51:56;;;;;;;16.13;3.10;;;12.10;99.90;;;;;;5019051;28;20390;-78
2022/11/08 01:54:54;;;;;;;14.70;3.27;;;12.10;99.90;;;;;;5019331;28;20308;-77
2022/11/08 01:57:26;;;;;;;17.60;3.67;;;12.10;99.90;;;;;;5010842;28;20288;-77
2022/11/08 01:59:55;;;;;;;14.57;3.40;;;12.10;99.90;;;;;;5019000;28;20285;-78
2022/11/08 02:02:21;;;;;;;15.03;2.53;;;12.10;99.90;;;;;;5020171;28;20732;-77
2022/11/08 02:04:47;;;;;;;12.60;3.20;;;12.10;99.90;;;;;;5003587;28;20287;-78
2022/11/08 02:07:14;;;;;;;12.37;3.30;;;12.10;99.90;;;;;;5020102;28;20292;-77
2022/11/08 02:09:43;;;;;;;15.07;2.97;;;12.10;99.90;;;;;;5020037;28;20291;-78
2022/11/08 02:12:11;;;;;;;12.43;3.23;;;12.10;99.90;;;;;;5018890;28;20295;-77
2022/11/08 02:14:37;;;;;;;17.13;3.00;;;12.00;99.90;;;;;;5019972;28;20292;-78
2022/11/08 02:17:03;;;;;;;12.70;2.90;;;12.00;99.90;;;;;;5002752;28;20291;-77
2022/11/08 02:19:44;;;;;;;15.63;5.00;;;11.90;99.90;;;;;;5019978;28;20116;-77
2022/11/08 02:22:34;;;;;;;10.33;2.97;;;11.90;99.90;;;;;;5002289;28;20291;-77
2022/11/08 02:25:00;;;;;;;15.33;4.10;;;11.90;99.90;;;;;;5019993;28;20276;-78
2022/11/08 02:27:26;;;;;;;13.40;3.07;;;11.80;99.90;;;;;;5018612;28;20335;-78
2022/11/08 02:29:55;;;;;;;16.23;3.43;;;11.80;99.90;;;;;;5020705;28;20320;-78
2022/11/08 02:32:22;;;;;;;10.30;3.07;;;11.80;99.90;;;;;;5002564;28;20046;-78
2022/11/08 02:34:56;;;;;;;10.47;2.70;;;11.70;99.90;;;;;;5018557;28;20800;-77
2022/11/08 02:37:25;;;;;;;14.47;3.90;;;11.70;99.90;;;;;;5003022;28;20371;-77
2022/11/08 02:39:51;;;;;;;13.47;2.70;;;11.70;99.90;;;;;;5018579;28;20355;-78
2022/11/08 02:42:19;;;;;;;12.73;2.90;;;11.70;99.90;;;;;;5002527;28;20285;-77
2022/11/08 02:44:45;;;;;;;12.77;2.90;;;11.60;99.90;;;;;;5019776;28;20049;-78
2022/11/08 02:47:11;;;;;;;14.97;2.87;;;11.60;99.90;;;;;;5002503;28;20337;-78
2022/11/08 02:49:37;;;;;;;9.43;2.90;;;11.60;99.90;;;;;;5018776;28;20726;-78
2022/11/08 02:52:03;;;;;;;14.90;3.00;;;11.60;99.90;;;;;;4998623;28;20054;-78
2022/11/08 02:54:29;;;;;;;12.73;2.73;;;11.60;99.90;;;;;;4999257;28;20049;-78
2022/11/08 02:56:54;;;;;;;13.63;2.90;;;11.50;99.90;;;;;;5015378;28;20292;-78
2022/11/08 02:59:20;;;;;;;9.97;3.07;;;11.50;99.90;;;;;;4999874;28;20112;-78
2022/11/08 03:01:46;;;;;;;14.33;3.83;;;11.50;99.90;;;;;;5015762;28;20489;-78
2022/11/08 03:04:11;;;;;;;12.13;2.67;;;11.50;99.90;;;;;;4999206;28;20050;-78
2022/11/08 03:06:37;;;;;;;12.60;3.03;;;11.50;99.90;;;;;;5016447;28;20057;-78
2022/11/08 03:09:04;;;;;;;15.13;3.37;;;11.50;99.90;;;;;;5015803;28;20056;-78
2022/11/08 03:11:29;;;;;;;12.83;3.23;;;11.40;99.90;;;;;;5016382;28;20056;-77
2022/11/08 03:13:55;;;;;;;10.97;2.77;;;11.50;99.90;;;;;;5016220;28;20391;-78
2022/11/08 03:16:21;;;;;;;11.97;3.60;;;11.40;99.90;;;;;;5016011;28;20204;-78
2022/11/08 03:18:47;;;;;;;13.57;3.13;;;11.40;99.90;;;;;;5015193;28;20376;-78
2022/11/08 03:21:12;;;;;;;8.70;2.70;;;11.40;99.90;;;;;;5015001;28;20053;-78
2022/11/08 03:23:38;;;;;;;14.73;3.60;;;11.40;99.90;;;;;;5015737;28;20054;-77
2022/11/08 03:26:05;;;;;;;10.27;3.47;;;11.40;99.90;;;;;;5016626;28;20462;-79
2022/11/08 03:28:31;;;;;;;12.37;3.03;;;11.40;99.90;;;;;;5016043;28;20375;-78
2022/11/08 03:30:57;;;;;;;15.33;3.03;;;11.30;99.90;;;;;;5031731;28;20293;-78
2022/11/08 03:33:23;;;;;;;14.10;3.43;;;11.30;99.90;;;;;;4998628;28;20383;-79
2022/11/08 03:35:50;;;;;;;11.50;2.90;;;11.30;99.90;;;;;;5015885;28;20050;-79
2022/11/08 03:38:16;;;;;;;10.57;3.00;;;11.30;99.90;;;;;;5015631;28;20594;-79
2022/11/08 03:40:44;;;;;;;10.87;3.30;;;11.30;99.90;;;;;;5015042;28;20371;-79
2022/11/08 03:43:10;;;;;;;9.83;2.40;;;11.30;99.90;;;;;;5032090;28;20425;-79
2022/11/08 03:45:36;;;;;;;15.33;3.63;;;11.30;99.90;;;;;;4998385;28;20368;-79
2022/11/08 03:48:01;;;;;;;11.60;2.70;;;11.20;99.90;;;;;;5014448;28;20125;-79
2022/11/08 03:50:27;;;;;;;9.60;3.00;;;11.20;99.90;;;;;;5014703;28;20374;-79
2022/11/08 03:52:54;;;;;;;13.07;3.10;;;11.20;99.90;;;;;;5014442;28;20065;-79
2022/11/08 03:55:23;;;;;;;9.83;2.77;;;11.20;99.90;;;;;;4998226;28;20379;-79
2022/11/08 03:57:50;;;;;;;11.20;2.90;;;11.10;99.90;;;;;;5015394;28;20285;-79
2022/11/08 04:00:21;;;;;;;13.50;3.47;;;11.20;99.90;;;;;;4998149;28;20296;-79
2022/11/08 04:02:47;;;;;;;10.57;2.80;;;11.10;99.90;;;;;;5014631;28;20359;-79
2022/11/08 04:05:14;;;;;;;11.87;2.90;;;11.10;99.90;;;;;;5014862;28;20372;-79
2022/11/08 04:07:40;;;;;;;13.07;2.57;;;11.10;99.90;;;;;;5014284;28;20294;-79
2022/11/08 04:10:07;;;;;;;10.60;3.20;;;11.10;99.90;;;;;;4997923;28;20328;-79
2022/11/08 04:15:21;;;;;;;14.27;2.93;;;11.10;99.90;;;;;;5000847;28;20344;-79
2022/11/08 04:23:17;;;;;;;16.47;3.33;;;11.00;99.90;;;;;;5001062;28;20285;-79
2022/11/08 04:25:44;;;;;;;10.97;2.80;;;11.00;99.90;;;;;;5013759;28;20300;-78
2022/11/08 04:28:10;;;;;;;14.70;2.93;;;11.00;99.90;;;;;;5014853;28;20291;-78
2022/11/08 04:30:36;;;;;;;15.80;3.73;;;11.00;99.90;;;;;;5015169;28;20363;-79
2022/11/08 04:33:03;;;;;;;11.00;2.90;;;11.00;99.90;;;;;;5014104;28;20292;-79
2022/11/08 04:35:30;;;;;;;12.33;3.67;;;11.00;99.90;;;;;;5014714;28;20353;-79
2022/11/08 04:37:58;;;;;;;13.67;3.80;;;11.00;99.90;;;;;;5014558;28;20293;-79
2022/11/08 04:40:24;;;;;;;13.80;3.17;;;11.00;99.90;;;;;;5013719;28;20301;-79
2022/11/08 04:42:50;;;;;;;12.37;2.93;;;11.00;99.90;;;;;;5015500;28;20806;-79
2022/11/08 04:45:15;;;;;;;14.43;3.20;;;10.90;99.90;;;;;;5014010;28;20462;-79
2022/11/08 04:47:44;;;;;;;9.50;3.23;;;10.90;99.90;;;;;;5013872;28;20045;-79
2022/11/08 04:50:10;;;;;;;11.60;3.60;;;10.90;99.90;;;;;;5013540;28;20058;-79
2022/11/08 04:52:36;;;;;;;9.87;3.20;;;10.90;99.90;;;;;;4980668;28;20372;-79
2022/11/08 04:55:02;;;;;;;11.90;3.50;;;10.90;99.90;;;;;;5013204;28;20508;-79
2022/11/08 04:57:27;;;;;;;11.87;3.43;;;10.90;99.90;;;;;;4997150;28;20125;-79
2022/11/08 04:59:53;;;;;;;11.77;2.77;;;10.90;99.90;;;;;;5014932;28;20054;-79
2022/11/08 05:02:19;;;;;;;12.37;3.30;;;10.90;99.90;;;;;;5014300;28;20053;-79
2022/11/08 05:04:44;;;;;;;9.30;2.87;;;10.90;99.90;;;;;;4996992;28;20061;-79
2022/11/08 05:07:10;;;;;;;10.97;2.80;;;10.90;99.90;;;;;;5013065;28;20041;-79
2022/11/08 05:09:36;;;;;;;12.20;3.57;;;10.90;99.90;;;;;;4996694;28;20500;-79
2022/11/08 05:12:01;;;;;;;9.13;2.90;;;10.90;99.90;;;;;;5012937;28;20054;-79
2022/11/08 05:14:27;;;;;;;10.57;3.53;;;10.90;99.90;;;;;;5013917;28;20049;-79
2022/11/08 05:16:53;;;;;;;10.37;3.10;;;10.90;99.90;;;;;;4997362;28;20049;-78
2022/11/08 05:23:22;;;;;;;6.67;2.80;;;10.90;99.90;;;;;;5013357;28;20137;-79
2022/11/08 05:24:48;;;;;;;14.57;3.37;;;10.90;99.90;;;;;;5013315;28;20019;-79
2022/11/08 05:27:14;;;;;;;13.10;4.03;;;10.90;99.90;;;;;;5029379;28;20383;-79
2022/11/08 05:29:40;;;;;;;10.83;3.73;;;10.90;99.90;;;;;;4997421;28;20046;-79
2022/11/08 05:32:05;;;;;;;8.93;2.70;;;10.90;99.90;;;;;;4996553;28;20050;-79
2022/11/08 05:34:31;;;;;;;13.10;2.90;;;10.90;99.90;;;;;;4996459;28;20046;-79
2022/11/08 05:36:57;;;;;;;10.13;3.00;;;10.90;99.90;;;;;;5013174;28;20056;-79
2022/11/08 05:39:22;;;;;;;10.53;3.23;;;10.90;99.90;;;;;;5012617;28;20054;-79
2022/11/08 05:41:48;;;;;;;11.77;3.27;;;10.90;99.90;;;;;;5014143;28;20057;-79
2022/11/08 05:44:14;;;;;;;8.83;2.80;;;10.90;99.90;;;;;;5012877;28;20113;-79
2022/11/08 05:46:39;;;;;;;11.87;3.10;;;10.90;99.90;;;;;;5012858;28;20042;-79
2022/11/08 05:49:05;;;;;;;12.90;3.17;;;10.90;99.90;;;;;;5012743;28;20440;-79
2022/11/08 05:51:31;;;;;;;10.63;3.17;;;10.90;99.90;;;;;;5013689;28;20061;-79
2022/11/08 05:53:57;;;;;;;9.73;2.70;;;10.90;99.90;;;;;;5013638;28;20056;-79
2022/11/08 05:56:22;;;;;;;10.07;2.53;;;10.90;99.90;;;;;;5013970;28;20281;-79
2022/11/08 05:58:48;;;;;;;10.30;2.73;;;10.90;99.90;;;;;;4980287;28;20104;-78
2022/11/08 06:01:16;;;;;;;11.40;2.97;;;10.90;99.90;;;;;;5012943;28;20049;-79
2022/11/08 06:03:42;;;;;;;11.73;2.77;;;10.90;99.90;;;;;;5013524;28;20076;-79
2022/11/08 06:06:14;;;;;;;12.37;3.47;;;10.90;99.90;;;;;;5012370;28;20859;-79
2022/11/08 06:08:40;;;;;;;8.10;2.50;;;10.90;99.90;;;;;;4996671;28;20120;-79
2022/11/08 06:11:09;;;;;;;13.10;2.83;;;10.90;99.90;;;;;;5012870;28;20293;-79
2022/11/08 06:13:35;;;;;;;8.77;2.40;;;10.90;99.90;;;;;;5012246;28;20297;-79
2022/11/08 06:16:06;;;;;;;8.97;2.97;;;10.90;99.90;;;;;;4996235;28;20284;-79
2022/11/08 06:18:32;;;;;;;9.50;2.50;;;10.90;99.90;;;;;;4996437;28;20054;-79
2022/11/08 06:20:59;;;;;;;8.17;2.50;;;10.90;99.90;;;;;;5012275;28;20297;-80
2022/11/08 06:23:25;;;;;;;10.63;2.27;;;10.90;99.90;;;;;;5012654;28;20289;-79
2022/11/08 06:25:50;;;;;;;6.73;2.40;;;10.90;99.90;;;;;;4996789;28;20384;-79
2022/11/08 06:28:16;;;;;;;8.43;2.70;;;11.00;99.90;;;;;;4983591;28;20042;-79
2022/11/08 06:30:42;;;;;;;9.87;2.70;;;11.00;99.90;;;;;;5000659;28;20089;-80
2022/11/08 06:33:08;;;;;;;6.43;2.03;;;11.00;99.90;;;;;;5015804;28;20054;-80
2022/11/08 06:35:35;;;;;;;11.03;2.83;;;11.00;99.90;;;;;;5016119;28;20081;-79
2022/11/08 06:38:01;;;;;;;10.73;2.67;;;11.00;99.90;;;;;;5016315;28;20374;-79
2022/11/08 06:40:27;;;;;;;7.37;2.60;;;11.00;99.90;;;;;;5015937;28;20288;-79
2022/11/08 06:42:53;;;;;;;9.50;2.50;;;11.00;99.90;;;;;;5016851;28;20289;-80
2022/11/08 06:45:19;;;;;;;8.37;1.97;;;11.00;99.90;;;;;;4999575;28;20042;-79
2022/11/08 06:47:44;;;;;;;8.63;2.60;;;11.00;99.90;;;;;;5016699;28;20053;-79
2022/11/08 06:50:10;;;;;;;11.17;2.63;;;11.00;99.90;;;;;;5015867;28;20478;-79
2022/11/08 06:52:36;;;;;;;11.97;2.43;;;11.00;99.90;;;;;;5017203;28;20061;-79
2022/11/08 06:55:02;;;;;;;6.23;2.13;;;11.00;99.90;;;;;;4999280;28;20046;-79
2022/11/08 06:57:27;;;;;;;10.60;2.80;;;11.00;99.90;;;;;;4983115;28;20050;-79
2022/11/08 06:59:53;;;;;;;6.97;2.20;;;10.90;99.90;;;;;;5032142;28;20042;-79
2022/11/08 07:02:19;;;;;;;9.23;2.53;;;10.90;99.90;;;;;;5015555;28;20466;-79
2022/11/08 07:04:44;;;;;;;9.63;2.70;;;10.90;99.90;;;;;;5015544;28;20064;-79
2022/11/08 07:07:10;;;;;;;5.07;2.00;;;11.00;99.90;;;;;;5015753;28;20128;-79
2022/11/08 07:09:36;;;;;;;8.63;2.20;;;11.00;99.90;;;;;;5032183;28;20046;-79
2022/11/08 07:12:02;;;;;;;7.37;2.07;;;10.90;99.90;;;;;;4998851;28;20555;-79
2022/11/08 07:14:27;;;;;;;7.73;2.00;;;10.90;99.90;;;;;;5015891;28;20042;-79
2022/11/08 07:16:53;;;;;;;8.90;2.37;;;11.00;99.90;;;;;;4999012;28;20046;-80
2022/11/08 07:19:18;;;;;;;12.07;3.07;;;11.00;99.90;;;;;;4998647;28;20037;-79
2022/11/08 07:21:44;;;;;;;7.63;1.87;;;11.00;99.90;;;;;;5016101;28;20081;-79
2022/11/08 07:24:10;;;;;;;6.33;2.27;;;11.00;99.90;;;;;;4999670;28;20053;-82
2022/11/08 07:26:35;;;;;;;7.17;2.87;;;11.00;99.90;;;;;;5015917;28;20042;-79
2022/11/08 07:29:01;;;;;;;8.23;2.30;;;11.00;99.90;;;;;;5014569;28;20050;-79
2022/11/08 07:31:27;;;;;;;7.50;2.13;;;11.00;99.90;;;;;;5015043;28;20127;-79
2022/11/08 07:33:53;;;;;;;7.17;2.90;;;11.10;99.90;;;;;;5015137;28;20092;-79
2022/11/08 07:36:18;;;;;;;6.97;2.10;;;11.10;99.90;;;;;;4999446;28;20158;-79
2022/11/08 07:38:44;;;;;;;6.67;2.37;;;11.10;99.90;;;;;;5014254;28;20045;-80
2022/11/08 07:41:10;;;;;;;6.57;2.20;;;11.20;99.90;;;;;;5014527;28;20410;-81
2022/11/08 07:43:36;;;;;;;8.33;2.47;;;11.30;99.90;;;;;;4998511;28;20072;-78
2022/11/08 07:46:01;;;;;;;9.37;2.13;;;11.20;99.90;;;;;;5014844;28;20049;-78
2022/11/08 07:48:29;;;;;;;5.70;2.10;;;11.20;99.90;;;;;;5015645;28;20045;-78
2022/11/08 07:50:55;;;;;;;7.77;2.67;;;11.30;99.90;;;;;;5015139;28;20421;-78
2022/11/08 07:53:21;;;;;;;11.87;2.33;;;11.30;99.90;;;;;;5014824;28;20293;-78
2022/11/08 07:55:47;;;;;;;5.53;2.20;;;11.30;99.90;;;;;;5015810;28;20116;-78
2022/11/08 07:58:14;;;;;;;8.93;2.10;;;11.30;99.90;;;;;;5014297;28;20050;-78
2022/11/08 08:00:41;;;;;;;7.37;3.10;;;11.30;99.90;;;;;;5014491;28;20285;-78
2022/11/08 08:03:09;;;;;;;7.33;2.27;;;11.40;99.90;;;;;;5014488;28;20281;-78
2022/11/08 08:05:41;;;;;;;8.73;2.27;;;11.40;99.90;;;;;;5015157;28;20301;-78
2022/11/08 08:08:07;;;;;;;5.43;2.20;;;11.50;99.90;;;;;;5014351;28;20296;-79
2022/11/08 08:10:34;;;;;;;8.93;2.93;;;11.50;99.90;;;;;;4998350;28;20292;-79
2022/11/08 08:13:00;;;;;;;12.13;2.93;;;11.50;99.90;;;;;;5015272;28;20281;-78
2022/11/08 08:15:26;;;;;;;6.03;2.30;;;11.50;99.90;;;;;;5013918;28;20304;-78
2022/11/08 08:17:52;;;;;;;9.83;2.80;;;11.60;99.90;;;;;;5015363;28;20284;-78
2022/11/08 08:20:18;;;;;;;6.37;2.50;;;11.60;99.90;;;;;;5014136;28;20045;-78
2022/11/08 08:22:46;;;;;;;9.63;2.27;;;11.60;99.90;;;;;;4998324;28;20292;-78
2022/11/08 08:25:12;;;;;;;5.77;2.57;;;11.60;99.90;;;;;;4998719;28;20355;-79
2022/11/08 08:27:38;;;;;;;8.10;2.50;;;11.60;99.90;;;;;;4997273;28;20380;-77
2022/11/08 08:30:05;;;;;;;6.67;2.47;;;11.60;99.90;;;;;;4997710;28;20376;-74
2022/11/08 08:32:31;;;;;;;10.77;3.17;;;11.60;99.90;;;;;;5013300;28;20293;-74
2022/11/08 08:34:56;;;;;;;9.03;3.07;;;11.70;99.90;;;;;;5014755;28;20366;-76
2022/11/08 08:37:22;;;;;;;7.77;2.40;;;11.70;99.90;;;;;;5013646;28;20129;-77
2022/11/08 08:39:48;;;;;;;7.10;2.43;;;11.70;99.90;;;;;;4998276;28;20373;-78
2022/11/08 08:42:13;;;;;;;8.10;3.00;;;11.80;99.90;;;;;;5014339;28;20058;-76
2022/11/08 08:44:39;;;;;;;9.43;2.40;;;11.80;99.90;;;;;;5013282;28;20041;-77
2022/11/08 08:47:05;;;;;;;9.30;2.40;;;11.80;99.90;;;;;;5013474;28;20049;-74
2022/11/08 08:49:30;;;;;;;6.47;2.57;;;11.80;99.90;;;;;;5013651;28;20045;-75
2022/11/08 08:51:56;;;;;;;5.27;2.20;;;11.90;99.90;;;;;;5014514;28;20363;-75
2022/11/08 08:54:22;;;;;;;6.83;2.70;;;11.90;99.90;;;;;;5014367;28;20046;-74
2022/11/08 08:56:47;;;;;;;6.57;2.87;;;12.00;99.90;;;;;;5015290;28;20061;-75
2022/11/08 08:59:13;;;;;;;8.77;2.80;;;12.00;99.90;;;;;;4997928;28;20052;-76
2022/11/08 09:01:39;;;;;;;5.80;2.50;;;12.00;99.90;;;;;;5013679;28;20123;-75
2022/11/08 09:04:05;;;;;;;6.97;2.60;;;12.10;99.90;;;;;;5013392;28;20057;-75
2022/11/08 09:06:31;;;;;;;6.37;2.67;;;12.10;99.90;;;;;;4996873;28;20060;-76
2022/11/08 09:08:56;;;;;;;9.67;2.73;;;12.10;99.90;;;;;;5013346;28;20076;-74
2022/11/08 09:11:22;;;;;;;5.40;2.60;;;12.20;99.90;;;;;;4997718;28;20045;-79
2022/11/08 09:13:48;;;;;;;5.63;2.60;;;12.20;99.90;;;;;;5012951;28;20504;-77
2022/11/08 09:16:13;;;;;;;8.67;2.47;;;12.20;99.90;;;;;;5013963;28;20046;-75
2022/11/08 09:18:40;;;;;;;6.53;2.30;;;12.20;99.90;;;;;;5013125;28;20042;-75
2022/11/08 09:21:05;;;;;;;7.13;2.80;;;12.20;99.90;;;;;;5014093;28;20046;-76
2022/11/08 09:23:31;;;;;;;5.50;2.10;;;12.20;99.90;;;;;;5012833;28;20698;-75
2022/11/08 09:25:58;;;;;;;9.40;2.73;;;12.30;99.90;;;;;;5013116;28;20054;-75
2022/11/08 09:28:24;;;;;;;6.53;2.20;;;12.30;99.90;;;;;;5013045;28;20056;-76
2022/11/08 09:30:50;;;;;;;7.30;2.77;;;12.30;99.90;;;;;;5013975;28;20334;-75
2022/11/08 09:33:16;;;;;;;7.83;2.77;;;12.40;99.90;;;;;;5014494;28;20717;-75
2022/11/08 09:35:42;;;;;;;7.70;2.67;;;12.40;99.90;;;;;;5012756;28;20050;-75
2022/11/08 09:38:07;;;;;;;5.47;2.40;;;12.40;99.90;;;;;;5013934;28;20133;-76
2022/11/08 09:40:47;;;;;;;8.60;2.60;;;12.40;99.90;;;;;;5014177;28;20532;-76
2022/11/08 09:43:31;;;;;;;7.00;2.13;;;12.40;99.90;;;;;;5012771;28;20073;-76
2022/11/08 09:45:57;;;;;;;7.13;2.80;;;12.40;99.90;;;;;;5013147;28;20296;-75
2022/11/08 09:48:40;;;;;;;6.90;2.50;;;12.50;99.90;;;;;;5012913;28;20304;-76
2022/11/08 09:51:15;;;;;;;9.13;2.40;;;12.50;99.90;;;;;;5013504;28;20056;-76
2022/11/08 09:53:55;;;;;;;4.50;2.17;;;12.50;99.90;;;;;;5014525;28;20300;-77
2022/11/08 09:56:26;;;;;;;7.40;2.20;;;12.50;99.90;;;;;;5012534;28;20056;-76
2022/11/08 09:59:36;;;;;;;8.03;2.57;;;12.50;99.90;;;;;;5013557;28;20368;-76
2022/11/08 10:02:02;;;;;;;5.80;2.43;;;12.50;99.90;;;;;;5010290;28;20324;-76
2022/11/08 10:04:31;;;;;;;7.90;2.33;;;12.50;99.90;;;;;;5017441;28;20292;-75
2022/11/08 10:07:15;;;;;;;7.47;2.40;;;12.60;99.90;;;;;;5017620;28;20283;-76
2022/11/08 10:09:55;;;;;;;6.10;2.17;;;12.60;99.90;;;;;;5016385;28;20289;-76
2022/11/08 10:13:05;;;;;;;7.93;2.33;;;12.60;99.90;;;;;;5016325;28;20288;-76
2022/11/08 10:15:47;;;;;;;8.70;2.53;;;12.60;99.90;;;;;;5007919;28;20312;-77
2022/11/08 10:18:31;;;;;;;5.97;2.40;;;12.60;99.90;;;;;;5016464;28;20908;-78
2022/11/08 10:21:32;;;;;;;5.37;2.30;;;12.70;99.90;;;;;;5016333;28;20304;-76
2022/11/08 10:24:30;;;;;;;5.97;2.23;;;12.70;99.90;;;;;;4995997;28;20380;-78
2022/11/08 10:26:58;;;;;;;5.67;2.07;;;12.70;99.90;;;;;;5015653;28;20371;-78
2022/11/08 10:29:55;;;;;;;5.73;2.30;;;12.60;99.90;;;;;;5017188;28;20866;-78
2022/11/08 10:32:22;;;;;;;7.33;2.50;;;12.60;99.90;;;;;;5016568;28;20380;-77
2022/11/08 10:34:55;;;;;;;5.23;2.33;;;12.60;99.90;;;;;;5017012;28;20308;-76
2022/11/08 10:37:21;;;;;;;8.30;2.50;;;12.60;99.90;;;;;;5017315;28;20664;-77
2022/11/08 10:40:14;;;;;;;7.13;2.63;;;12.50;99.90;;;;;;5016989;28;20803;-79
2022/11/08 10:43:00;;;;;;;4.93;2.00;;;12.60;99.90;;;;;;4989144;28;20293;-86
2022/11/08 10:45:26;;;;;;;6.30;2.60;;;;;;;;;;5017287;28;20283;-79
2022/11/08 10:47:53;;;;;;;7.73;2.20;;;12.60;99.90;;;;;;5016903;28;20340;-78
2022/11/08 10:50:29;;;;;;;5.83;2.10;;;12.70;99.90;;;;;;5016523;28;20773;-81
2022/11/08 10:53:02;;;;;;;7.03;2.13;;;12.70;99.90;;;;;;5015250;28;20347;-76
2022/11/08 10:55:37;;;;;;;8.23;2.50;;;12.70;99.90;;;;;;5016281;28;20725;-78
2022/11/08 10:58:03;;;;;;;7.13;2.72;;;12.80;99.90;;;;;;5015728;28;20324;-78
2022/11/08 11:00:31;;;;;;;6.37;2.90;;;12.80;99.90;;;;;;5015400;28;20057;-78
2022/11/08 11:03:04;;;;;;;6.60;2.30;;;12.90;99.90;;;;;;5015422;28;20371;-78
2022/11/08 11:05:42;;;;;;;5.30;2.33;;;12.90;99.90;;;;;;5015935;28;20340;-78
2022/11/08 11:08:07;;;;;;;8.07;2.87;;;13.00;99.90;;;;;;5016816;28;20673;-79
2022/11/08 11:10:34;;;;;;;5.97;1.97;;;13.10;99.90;;;;;;5016473;28;20297;-77
2022/11/08 11:13:01;;;;;;;5.33;2.00;;;13.10;99.90;;;;;;4998234;28;20535;-78
2022/11/08 11:15:32;;;;;;;8.27;2.03;;;13.10;99.90;;;;;;4998758;28;20444;-78
2022/11/08 11:17:58;;;;;;;7.30;2.13;;;13.20;99.90;;;;;;5031754;28;20293;-78
2022/11/08 11:20:24;;;;;;;4.43;2.00;;;13.30;99.90;;;;;;5015524;28;20296;-78
2022/11/08 11:22:52;;;;;;;8.23;2.13;;;13.30;99.90;;;;;;4998914;28;20050;-78
2022/11/08 11:25:21;;;;;;;6.60;2.00;;;13.40;99.90;;;;;;5016188;28;20284;-77
2022/11/08 11:27:56;;;;;;;7.07;2.20;;;13.40;99.90;;;;;;5016058;28;20281;-78
2022/11/08 11:30:27;;;;;;;5.20;1.93;;;13.50;99.90;;;;;;4999643;28;20289;-78
2022/11/08 11:33:02;;;;;;;6.37;2.63;;;13.50;99.90;;;;;;4998412;28;20293;-78
2022/11/08 11:35:44;;;;;;;5.78;2.30;;;13.50;99.90;;;;;;5016755;28;20308;-78
2022/11/08 11:38:37;;;;;;;6.50;2.13;;;13.60;99.90;;;;;;5016512;28;20060;-78
2022/11/08 11:41:10;;;;;;;7.33;2.10;;;13.60;99.90;;;;;;5015574;28;20845;-78
2022/11/08 11:44:03;;;;;;;12.93;2.97;;;13.60;99.90;;;;;;5015157;28;20296;-78
2022/11/08 11:46:38;;;;;;;8.07;2.00;;;13.70;99.90;;;;;;5015105;28;20050;-78
2022/11/08 11:49:15;;;;;;;5.65;2.42;;;13.70;99.90;;;;;;5016571;28;20280;-77
2022/11/08 11:51:40;;;;;;;5.90;1.87;;;13.70;99.90;;;;;;5015488;28;20057;-79
2022/11/08 11:54:07;;;;;;;4.67;2.20;;;13.70;99.90;;;;;;4999148;28;20355;-78
2022/11/08 11:56:45;;;;;;;5.80;2.00;;;13.80;99.90;;;;;;5014584;28;20053;-78
2022/11/08 11:59:29;;;;;;;7.27;1.97;;;13.80;99.90;;;;;;4998346;28;20296;-78
2022/11/08 12:02:07;;;;;;;5.63;2.43;;;13.80;99.90;;;;;;5014301;28;20050;-78
2022/11/08 12:04:57;;;;;;;7.97;2.10;;;13.80;99.90;;;;;;5014671;28;20045;-78
2022/11/08 12:07:25;;;;;;;6.80;2.40;;;;;;;;;;5015323;28;20358;-78
2022/11/08 12:10:09;;;;;;;5.93;2.07;;;13.90;99.90;;;;;;5014306;28;20293;-78
2022/11/08 12:13:02;;;;;;;7.30;2.10;;;13.90;99.90;;;;;;5014453;28;20049;-78
2022/11/08 12:15:47;;;;;;;6.90;2.00;;;13.90;99.90;;;;;;5014321;28;20429;-78
2022/11/08 12:18:13;;;;;;;5.68;1.55;;;13.90;99.90;;;;;;5014576;28;20091;-78
2022/11/08 12:20:57;;;;;;;5.60;1.97;;;13.80;99.90;;;;;;5014911;28;20042;-78
2022/11/08 12:24:01;;;;;;;5.20;1.73;;;13.80;99.90;;;;;;5015441;28;20057;-74
2022/11/08 12:26:37;;;;;;;5.43;2.07;;;13.80;99.90;;;;;;5014352;28;20064;-86
2022/11/08 12:29:24;;;;;;;7.60;2.13;;;13.90;99.90;;;;;;5015805;28;20045;-77
2022/11/08 12:32:22;;;;;;;7.50;2.20;;;13.90;99.90;;;;;;5013837;28;20132;-78
2022/11/08 12:35:07;;;;;;;4.73;1.80;;;14.00;99.90;;;;;;5013498;28;20308;-75
2022/11/08 12:37:54;;;;;;;6.50;1.77;;;14.10;99.90;;;;;;5013886;28;20289;-76
2022/11/08 12:40:34;;;;;;;5.43;2.10;;;14.10;99.90;;;;;;5015328;28;20085;-76
2022/11/08 12:43:22;;;;;;;4.10;1.73;;;14.10;99.90;;;;;;5013713;28;20303;-76
2022/11/08 12:46:01;;;;;;;5.27;2.10;;;14.10;99.90;;;;;;5013985;28;20407;-75
2022/11/08 12:48:39;;;;;;;7.20;2.30;;;14.10;99.90;;;;;;5015282;28;20050;-75
2022/11/08 12:51:10;;;;;;;6.33;2.30;;;14.10;99.90;;;;;;5013576;28;20056;-75
2022/11/08 12:53:47;;;;;;;6.27;2.13;;;14.10;99.90;;;;;;5015065;28;20320;-75
2022/11/08 12:56:27;;;;;;;6.70;2.10;;;14.10;99.90;;;;;;5015380;28;20049;-75
2022/11/08 12:58:54;;;;;;;6.00;2.33;;;14.00;99.90;;;;;;5014491;28;20077;-76
2022/11/08 13:01:22;;;;;;;8.57;1.80;;;14.00;99.90;;;;;;5014421;28;20285;-72
2022/11/08 13:04:17;;;;;;;6.77;2.33;;;14.10;99.90;;;;;;5014392;28;20073;-79
2022/11/08 13:07:02;;;;;;;6.82;2.00;;;14.00;99.90;;;;;;5014903;28;20052;-78
2022/11/08 13:09:46;;;;;;;4.90;2.30;;;14.10;99.90;;;;;;4996918;28;20095;-74
2022/11/08 13:12:20;;;;;;;5.93;2.10;;;14.10;99.90;;;;;;5014468;28;20505;-74
2022/11/08 13:14:46;;;;;;;4.50;2.20;;;14.10;99.90;;;;;;5012825;28;20046;-75
2022/11/08 13:17:26;;;;;;;4.57;1.80;;;14.10;99.90;;;;;;4996876;28;20057;-75